Terminal Aerodrome Forecast
Issued by NWS Topeka, KS

Home | Current Version | Previous Version | Graphics & Text | Print | Product List | Glossary On
Versions: 1 2 3 4 5 6 7 8 9 10 11 12 13 14 15 16 17 18 19
000
FTUS43 KTOP 301700
TAFTOP
TAF
KTOP 301731Z 3018/3118 35010KT P6SM OVC017
     FM302200 36009KT P6SM BKN022 OVC040
     FM310200 01005KT P6SM BKN014 OVC025
     FM311500 07005KT P6SM FEW015=

USA.gov is the U.S. government's official web portal to all federal, state and local government web resources and services.